sensor_id;sensor_type;location;lat;lon;timestamp;pressure;altitude;pressure_sealevel;temperature;humidity
62237;BME280;48222;51.502;-0.228;2023-04-09T16:35:14;101154.82;;;17.56;36.06
62237;BME280;48222;51.502;-0.228;2023-04-09T16:37:40;101158.27;;;17.82;35.92
62237;BME280;69163;48.778;2.308;2023-04-09T16:40:07;101162.92;;;18.11;35.84
62237;BME280;69163;48.778;2.308;2023-04-09T16:42:31;101163.05;;;17.70;35.93
62237;BME280;69163;48.778;2.308;2023-04-09T16:44:57;101160.86;;;17.21;35.89
62237;BME280;69163;48.778;2.308;2023-04-09T16:47:21;101162.41;;;17.67;35.93
62237;BME280;69163;48.778;2.308;2023-04-09T16:49:47;101166.50;;;17.49;35.86
62237;BME280;69163;48.778;2.308;2023-04-09T16:52:12;101168.34;;;16.58;35.84
62237;BME280;69163;48.778;2.308;2023-04-09T16:57:28;101166.43;;;18.13;35.33
62237;BME280;69163;48.778;2.308;2023-04-09T16:59:55;101165.01;;;16.73;35.28
62237;BME280;69163;48.778;2.308;2023-04-09T17:02:31;101165.95;;;17.73;35.21
62237;BME280;69163;48.778;2.308;2023-04-09T17:04:56;101166.74;;;16.96;35.28
62237;BME280;69163;48.778;2.308;2023-04-09T17:07:22;101169.56;;;17.73;35.20
62237;BME280;69163;48.778;2.308;2023-04-09T17:09:48;101172.30;;;17.22;35.20
62237;BME280;69163;48.778;2.308;2023-04-09T17:12:12;101177.35;;;17.45;35.16
62237;BME280;69163;48.778;2.308;2023-04-09T17:14:38;101174.60;;;17.29;34.96
62237;BME280;69163;48.778;2.308;2023-04-09T17:17:04;101178.45;;;17.66;34.95
62237;BME280;69163;48.778;2.308;2023-04-09T17:19:29;101179.76;;;18.38;34.44
62237;BME280;69163;48.778;2.308;2023-04-09T17:21:59;101181.75;;;19.02;33.91
62237;BME280;69163;48.778;2.308;2023-04-09T17:33:06;101184.33;;;18.27;36.68
62237;BME280;69163;48.778;2.308;2023-04-09T17:35:30;101194.74;;;17.94;37.05
62237;BME280;69163;48.778;2.308;2023-04-09T17:37:55;101195.88;;;17.58;37.13
62237;BME280;69163;48.778;2.308;2023-04-09T17:40:26;101197.03;;;17.35;37.01
62237;BME280;69163;48.778;2.308;2023-04-09T17:42:55;101200.93;;;17.70;37.06
62237;BME280;69163;48.778;2.308;2023-04-09T17:45:20;101201.34;;;17.78;36.84
62237;BME280;69163;48.778;2.308;2023-04-09T17:47:45;101202.64;;;17.25;36.98
62237;BME280;69163;48.778;2.308;2023-04-09T17:50:12;101200.52;;;16.63;37.38
62237;BME280;69163;48.778;2.308;2023-04-09T18:03:31;101190.99;;;18.54;35.57
62237;BME280;69163;48.778;2.308;2023-04-09T18:05:57;101191.97;;;19.00;34.78
62237;BME280;69163;48.778;2.308;2023-04-09T18:08:22;101192.78;;;19.54;34.21
62237;BME280;69163;48.778;2.308;2023-04-09T18:10:47;101187.74;;;19.70;33.61
62237;BME280;69163;48.778;2.308;2023-04-09T18:13:12;101189.09;;;20.27;33.19
62237;BME280;69163;48.778;2.308;2023-04-09T18:15:38;101191.64;;;20.61;32.78
62237;BME280;69163;48.778;2.308;2023-04-09T18:18:03;101184.65;;;20.67;32.42
62237;BME280;69163;48.778;2.308;2023-04-09T18:20:28;101187.55;;;20.90;32.13
62237;BME280;69163;48.778;2.308;2023-04-09T18:22:53;101186.48;;;20.82;31.91
62237;BME280;69163;48.778;2.308;2023-04-09T18:25:19;101190.82;;;20.91;31.81
62237;BME280;69163;48.778;2.308;2023-04-09T18:27:45;101192.88;;;20.57;31.61
62237;BME280;69163;48.778;2.308;2023-04-09T18:30:10;101191.78;;;20.13;31.66
62237;BME280;69163;48.778;2.308;2023-04-09T18:32:35;101192.42;;;21.21;31.42
62237;BME280;69163;48.778;2.308;2023-04-09T18:35:00;101195.10;;;21.33;31.27
62237;BME280;69163;48.778;2.308;2023-04-09T18:37:25;101195.02;;;21.12;31.22
62237;BME280;69163;48.778;2.308;2023-04-09T18:39:50;101196.08;;;21.15;31.14
62237;BME280;69163;48.778;2.308;2023-04-09T18:42:16;101199.00;;;21.12;31.17
62237;BME280;69163;48.778;2.308;2023-04-09T19:01:30;101216.42;;;16.99;36.92
62237;BME280;69163;48.778;2.308;2023-04-09T19:03:55;101217.21;;;16.53;37.17
62237;BME280;69163;48.778;2.308;2023-04-09T19:06:21;101217.25;;;16.12;37.18
62237;BME280;69163;48.778;2.308;2023-04-09T19:08:48;101215.28;;;16.28;36.94
62237;BME280;69163;48.778;2.308;2023-04-09T19:11:16;101219.60;;;16.31;36.60
62237;BME280;69163;48.778;2.308;2023-04-09T19:13:43;101213.29;;;16.38;36.45
62237;BME280;69163;48.778;2.308;2023-04-09T19:16:09;101213.49;;;16.43;36.37
62237;BME280;69163;48.778;2.308;2023-04-09T19:18:35;101210.60;;;16.49;36.34
62237;BME280;69163;48.778;2.308;2023-04-09T19:21:00;101213.48;;;16.57;36.25
62237;BME280;69163;48.778;2.308;2023-04-09T19:23:25;101213.82;;;16.45;36.12
62237;BME280;69163;48.778;2.308;2023-04-09T19:25:51;101210.94;;;16.46;36.04
62237;BME280;69163;48.778;2.308;2023-04-09T19:28:16;101214.06;;;16.35;35.84
62237;BME280;69163;48.778;2.308;2023-04-09T19:30:41;101218.33;;;16.62;36.31
62237;BME280;69163;48.778;2.308;2023-04-09T19:33:07;101218.21;;;16.16;35.95
62237;BME280;69163;48.778;2.308;2023-04-09T19:35:31;101217.72;;;16.34;36.02
62237;BME280;69163;48.778;2.308;2023-04-09T19:38:00;101214.85;;;16.09;36.14
62237;BME280;69163;48.778;2.308;2023-04-09T19:40:29;101212.42;;;16.18;36.27
62237;BME280;69163;48.778;2.308;2023-04-09T19:42:54;101211.55;;;16.15;36.29
62237;BME280;69163;48.778;2.308;2023-04-09T19:45:19;101213.79;;;16.13;36.34
62237;BME280;69163;48.778;2.308;2023-04-09T19:47:45;101211.78;;;16.67;36.39
62237;BME280;69163;48.778;2.308;2023-04-09T19:50:10;101210.45;;;16.24;36.31
62237;BME280;69163;48.778;2.308;2023-04-09T19:52:35;101206.22;;;16.50;36.40
62237;BME280;69163;48.778;2.308;2023-04-09T19:55:01;101203.32;;;16.56;36.39
62237;BME280;69163;48.778;2.308;2023-04-09T19:57:26;101200.24;;;16.67;36.60
62237;BME280;69163;48.778;2.308;2023-04-09T19:59:52;101202.48;;;16.36;36.64
62237;BME280;69163;48.778;2.308;2023-04-09T20:02:18;101208.76;;;16.32;36.67
62237;BME280;69163;48.778;2.308;2023-04-09T20:04:43;101209.89;;;16.35;36.64
62237;BME280;69163;48.778;2.308;2023-04-09T20:07:08;101209.76;;;16.08;36.67
62237;BME280;69163;48.778;2.308;2023-04-09T20:09:34;101213.43;;;16.33;36.63
62237;BME280;69163;48.778;2.308;2023-04-09T20:22:23;101215.46;;;15.85;36.59
62237;BME280;69163;48.778;2.308;2023-04-09T20:26:46;101217.50;;;16.27;36.60
62237;BME280;69163;48.778;2.308;2023-04-09T20:29:11;101215.90;;;16.28;36.61
62237;BME280;69163;48.778;2.308;2023-04-09T20:31:36;101220.57;;;16.01;36.58
62237;BME280;69163;48.778;2.308;2023-04-09T20:34:02;101218.88;;;16.25;36.55
62237;BME280;69163;48.778;2.308;2023-04-09T20:36:27;101221.03;;;16.25;36.54
62237;BME280;69163;48.778;2.308;2023-04-09T20:38:52;101218.59;;;16.27;36.55
62237;BME280;69163;48.778;2.308;2023-04-09T20:41:17;101219.39;;;16.48;36.54
62237;BME280;69163;48.778;2.308;2023-04-09T20:43:42;101221.01;;;16.19;36.59
62237;BME280;69163;48.778;2.308;2023-04-09T20:46:07;101221.82;;;16.22;36.57
62237;BME280;69163;48.778;2.308;2023-04-09T20:48:32;101220.99;;;16.24;36.56
62237;BME280;69163;48.778;2.308;2023-04-09T20:50:58;101215.72;;;16.28;36.48
62237;BME280;69163;48.778;2.308;2023-04-09T20:53:23;101213.05;;;16.26;36.53
62237;BME280;69163;48.778;2.308;2023-04-09T20:55:48;101213.27;;;16.24;36.51
62237;BME280;69163;48.778;2.308;2023-04-09T20:58:13;101210.31;;;16.23;36.51
62237;BME280;69163;48.778;2.308;2023-04-09T21:00:39;101209.59;;;16.22;36.51
62237;BME280;69163;48.778;2.308;2023-04-09T21:03:04;101210.59;;;16.24;36.47
62237;BME280;69163;48.778;2.308;2023-04-09T21:05:29;101206.80;;;16.24;36.43
62237;BME280;69163;48.778;2.308;2023-04-09T21:07:54;101204.71;;;16.25;36.41
62237;BME280;69163;48.778;2.308;2023-04-09T21:10:20;101203.65;;;16.24;36.40
62237;BME280;69163;48.778;2.308;2023-04-09T21:12:45;101202.87;;;16.25;36.45
62237;BME280;69163;48.778;2.308;2023-04-09T21:15:10;101208.73;;;16.11;36.27
62237;BME280;69163;48.778;2.308;2023-04-09T21:17:35;101206.53;;;16.29;36.34
62237;BME280;69163;48.778;2.308;2023-04-09T21:20:01;101202.30;;;16.50;36.24
62237;BME280;69163;48.778;2.308;2023-04-09T21:22:27;101206.42;;;16.36;36.27
62237;BME280;69163;48.778;2.308;2023-04-09T21:24:52;101206.76;;;16.09;36.36
62237;BME280;69163;48.778;2.308;2023-04-09T21:27:17;101210.48;;;16.08;36.40
62237;BME280;69163;48.778;2.308;2023-04-09T21:29:42;101212.79;;;16.07;36.50
62237;BME280;69163;48.778;2.308;2023-04-09T21:32:07;101214.32;;;16.08;36.51
62237;BME280;69163;48.778;2.308;2023-04-09T21:34:33;101209.86;;;16.30;36.63
62237;BME280;69163;48.778;2.308;2023-04-09T21:37:01;101209.50;;;16.53;36.71
62237;BME280;69163;48.778;2.308;2023-04-09T21:39:24;101215.75;;;16.31;36.77
62237;BME280;69163;48.778;2.308;2023-04-09T21:41:49;101215.05;;;16.28;36.79
62237;BME280;69163;48.778;2.308;2023-04-09T21:44:14;101210.17;;;16.27;36.77
62237;BME280;69163;48.778;2.308;2023-04-09T21:46:40;101213.25;;;16.24;36.82
62237;BME280;69163;48.778;2.308;2023-04-09T21:49:05;101212.14;;;16.21;36.87
62237;BME280;69163;48.778;2.308;2023-04-09T21:51:30;101213.19;;;16.22;36.84
62237;BME280;69163;48.778;2.308;2023-04-09T21:54:01;101211.15;;;15.97;36.80
62237;BME280;69163;48.778;2.308;2023-04-09T21:56:21;101206.17;;;16.18;36.83
62237;BME280;69163;48.778;2.308;2023-04-09T21:58:46;101206.64;;;16.18;36.78
62237;BME280;69163;48.778;2.308;2023-04-09T22:01:11;101204.54;;;16.46;36.77
62237;BME280;69163;48.778;2.308;2023-04-09T22:03:36;101201.27;;;16.22;36.71
62237;BME280;69163;48.778;2.308;2023-04-09T22:06:02;101199.79;;;16.71;36.67
62237;BME280;69163;48.778;2.308;2023-04-09T22:08:27;101202.09;;;16.24;36.66
62237;BME280;69163;48.778;2.308;2023-04-09T22:10:53;101204.41;;;16.26;36.60
62237;BME280;69163;48.778;2.308;2023-04-09T22:13:18;101201.40;;;16.24;36.60
62237;BME280;69163;48.778;2.308;2023-04-09T22:15:43;101197.98;;;16.25;36.54
62237;BME280;69163;48.778;2.308;2023-04-09T22:18:08;101196.24;;;16.01;36.55
62237;BME280;69163;48.778;2.308;2023-04-09T22:20:34;101196.06;;;16.01;36.51
62237;BME280;69163;48.778;2.308;2023-04-09T22:22:59;101201.66;;;16.04;36.43
62237;BME280;69163;48.778;2.308;2023-04-09T22:25:24;101204.11;;;16.27;36.43
62237;BME280;69163;48.778;2.308;2023-04-09T22:27:50;101204.91;;;16.00;36.47
62237;BME280;69163;48.778;2.308;2023-04-09T22:30:15;101202.50;;;16.23;36.48
62237;BME280;69163;48.778;2.308;2023-04-09T22:32:40;101201.95;;;16.21;36.46
62237;BME280;69163;48.778;2.308;2023-04-09T22:35:06;101203.12;;;15.98;36.40
62237;BME280;69163;48.778;2.308;2023-04-09T22:37:31;101203.63;;;15.99;36.34
62237;BME280;69163;48.778;2.308;2023-04-09T22:39:56;101204.04;;;16.22;36.36
62237;BME280;69163;48.778;2.308;2023-04-09T22:42:21;101204.09;;;16.21;36.40
62237;BME280;69163;48.778;2.308;2023-04-09T22:44:47;101202.27;;;16.21;36.34
62237;BME280;69163;48.778;2.308;2023-04-09T22:47:13;101199.95;;;16.21;36.28
62237;BME280;69163;48.778;2.308;2023-04-09T22:49:38;101197.35;;;16.43;36.33
62237;BME280;69163;48.778;2.308;2023-04-09T22:52:03;101194.07;;;16.45;36.30
62237;BME280;69163;48.778;2.308;2023-04-09T22:54:28;101194.24;;;16.21;36.25
62237;BME280;69163;48.778;2.308;2023-04-09T22:56:53;101197.86;;;16.20;36.27
62237;BME280;69163;48.778;2.308;2023-04-09T22:59:18;101198.41;;;15.95;36.24
62237;BME280;69163;48.778;2.308;2023-04-09T23:01:43;101195.25;;;16.18;36.26
62237;BME280;69163;48.778;2.308;2023-04-09T23:04:09;101192.70;;;15.94;36.28
62237;BME280;69163;48.778;2.308;2023-04-09T23:06:34;101191.68;;;16.17;36.27
62237;BME280;69163;48.778;2.308;2023-04-09T23:08:59;101188.18;;;16.17;36.24
62237;BME280;69163;48.778;2.308;2023-04-09T23:11:25;101184.58;;;16.20;36.19
62237;BME280;69163;48.778;2.308;2023-04-09T23:13:50;101180.73;;;16.19;36.26
62237;BME280;69163;48.778;2.308;2023-04-09T23:16:15;101177.35;;;16.15;36.27
62237;BME280;69163;48.778;2.308;2023-04-09T23:18:40;101177.69;;;16.15;36.29
62237;BME280;69163;48.778;2.308;2023-04-09T23:21:06;101174.48;;;15.90;36.25
62237;BME280;69163;48.778;2.308;2023-04-09T23:23:31;101169.52;;;15.89;36.24
62237;BME280;69163;48.778;2.308;2023-04-09T23:25:56;101169.07;;;15.89;36.25
62237;BME280;69163;48.778;2.308;2023-04-09T23:28:22;101170.54;;;16.16;36.23
62237;BME280;69163;48.778;2.308;2023-04-09T23:30:47;101168.29;;;16.14;36.24
62237;BME280;69163;48.778;2.308;2023-04-09T23:33:12;101169.03;;;16.14;36.23
62237;BME280;69163;48.778;2.308;2023-04-09T23:35:38;101166.89;;;15.91;36.22
62237;BME280;69163;48.778;2.308;2023-04-09T23:38:03;101165.90;;;16.15;36.21
62237;BME280;69163;48.778;2.308;2023-04-09T23:40:28;101163.28;;;15.89;36.23
62237;BME280;69163;48.778;2.308;2023-04-09T23:42:53;101163.33;;;15.90;36.19
62237;BME280;69163;48.778;2.308;2023-04-09T23:45:18;101160.74;;;16.11;36.26
62237;BME280;69163;48.778;2.308;2023-04-09T23:47:44;101160.90;;;15.89;36.26
62237;BME280;69163;48.778;2.308;2023-04-09T23:50:09;101158.94;;;16.12;36.26
62237;BME280;69163;48.778;2.308;2023-04-09T23:52:36;101154.23;;;16.11;36.19
62237;BME280;69163;48.778;2.308;2023-04-09T23:55:00;101150.69;;;16.11;36.23
62237;BME280;69163;48.778;2.308;2023-04-09T23:57:25;101146.41;;;15.88;36.19
62237;BME280;69163;48.778;2.308;2023-04-09T23:59:50;101143.32;;;16.19;36.01
